Time;durP1;ratioP1;P1;durP2;ratioP2;P2;SDS_P1;SDS_P2;PMS_P1;PMS_P2;Temp;Humidity;BMP_temperature;BMP_pressure;BME280_temperature;BME280_humidity;BME280_pressure;Samples;Min_cycle;Max_cycle;Signal;HPM_P1;HPM_P2
2022/07/22 00:01:38;;;;;;;1.77;1.50;;;;;;;28.76;43.64;101937.44;5028574;28;20033;-75
2022/07/22 00:04:04;;;;;;;1.75;1.40;;;;;;;28.76;43.76;101940.13;5029599;28;20033;-75
2022/07/22 00:06:30;;;;;;;1.73;1.40;;;;;;;28.75;44.11;101932.13;5029588;28;20391;-75
2022/07/22 00:08:56;;;;;;;1.80;1.40;;;;;;;28.73;43.73;101926.78;5029164;28;20030;-74
2022/07/22 00:11:21;;;;;;;2.00;1.52;;;;;;;28.73;43.71;101934.84;5029149;28;20052;-75
2022/07/22 00:13:47;;;;;;;2.13;1.42;;;;;;;28.72;43.85;101937.63;5029545;28;20132;-75
2022/07/22 00:16:13;;;;;;;2.70;1.50;;;;;;;28.73;44.13;101939.38;5029663;28;20029;-75
2022/07/22 00:18:38;;;;;;;2.28;1.30;;;;;;;28.72;44.10;101940.31;5027640;28;20037;-75
2022/07/22 00:21:04;;;;;;;1.70;1.35;;;;;;;28.73;43.78;101944.75;5027918;28;20033;-74
2022/07/22 00:23:29;;;;;;;1.77;1.40;;;;;;;28.71;44.04;101946.59;5029717;28;20027;-75
2022/07/22 00:25:55;;;;;;;2.83;1.27;;;;;;;28.71;43.76;101943.91;5029154;28;20338;-75
2022/07/22 00:28:20;;;;;;;2.08;1.40;;;;;;;28.72;43.96;101943.88;5028710;28;20460;-74
2022/07/22 00:30:46;;;;;;;1.80;1.50;;;;;;;28.70;43.78;101937.69;5028036;28;20053;-75
2022/07/22 00:33:11;;;;;;;1.90;1.38;;;;;;;28.70;44.12;101942.16;5029357;28;20539;-75
2022/07/22 00:35:36;;;;;;;2.10;1.38;;;;;;;28.67;44.12;101945.84;5029320;28;20021;-75
2022/07/22 00:38:02;;;;;;;1.80;1.40;;;;;;;28.67;44.10;101949.41;5029047;28;20121;-74
2022/07/22 00:40:28;;;;;;;2.17;1.48;;;;;;;28.67;44.09;101947.69;5028949;28;20087;-74
2022/07/22 00:42:53;;;;;;;1.50;1.27;;;;;;;28.67;43.82;101951.22;5028920;28;20029;-75
2022/07/22 00:45:19;;;;;;;1.67;1.35;;;;;;;28.67;43.89;101951.22;5029118;28;20080;-74
2022/07/22 00:47:44;;;;;;;1.85;1.35;;;;;;;28.66;43.89;101946.81;5029126;28;20029;-74
2022/07/22 00:50:11;;;;;;;1.60;1.35;;;;;;;28.65;44.09;101947.75;5028520;28;20117;-75
2022/07/22 00:52:36;;;;;;;1.98;1.40;;;;;;;28.63;43.88;101945.13;5029099;28;20404;-75
2022/07/22 00:55:04;;;;;;;1.60;1.30;;;;;;;28.65;43.83;101945.06;5029001;28;20040;-74
2022/07/22 00:57:30;;;;;;;1.60;1.40;;;;;;;28.65;43.93;101950.44;5028735;28;20056;-75
2022/07/22 00:59:56;;;;;;;1.52;1.40;;;;;;;28.63;43.79;101945.13;5028290;28;20392;-75
2022/07/22 01:02:21;;;;;;;2.25;1.30;;;;;;;28.62;44.01;101934.47;5029256;28;20052;-75
2022/07/22 01:04:47;;;;;;;2.15;1.50;;;;;;;28.64;43.62;101940.63;5027613;28;20742;-74
2022/07/22 01:07:12;;;;;;;2.28;1.40;;;;;;;28.63;44.10;101934.41;5031686;28;20749;-74
2022/07/22 01:09:41;;;;;;;1.25;1.10;;;;;;;28.62;43.89;101935.34;5030921;28;20515;-75
2022/07/22 01:12:07;;;;;;;2.03;1.40;;;;;;;28.62;44.17;101931.78;5032420;28;20025;-75
2022/07/22 01:14:32;;;;;;;1.70;1.27;;;;;;;28.63;43.98;101942.44;5031752;28;20144;-75
2022/07/22 01:16:57;;;;;;;1.70;1.30;;;;;;;28.62;43.97;101935.34;5031484;28;20064;-75
2022/07/22 01:19:23;;;;;;;1.73;1.40;;;;;;;28.63;43.70;101931.72;5032263;28;20395;-74
2022/07/22 01:21:48;;;;;;;2.00;1.30;;;;;;;28.60;43.80;101939.91;5031333;28;20083;-75
2022/07/22 01:24:13;;;;;;;1.55;1.30;;;;;;;28.59;43.97;101937.31;5032487;28;20510;-75
2022/07/22 01:26:39;;;;;;;2.28;1.40;;;;;;;28.60;44.15;101933.69;5031617;28;20029;-74
2022/07/22 01:29:04;;;;;;;2.00;1.25;;;;;;;28.58;43.87;101939.09;5031380;28;20033;-75
2022/07/22 01:31:30;;;;;;;1.73;1.20;;;;;;;28.60;44.08;101936.38;5032616;28;20037;-75
2022/07/22 01:33:55;;;;;;;1.67;1.30;;;;;;;28.59;43.81;101942.66;5030717;28;20025;-75
2022/07/22 01:36:21;;;;;;;1.50;1.30;;;;;;;28.58;43.90;101946.28;5032704;28;20412;-75
2022/07/22 01:38:46;;;;;;;2.03;1.30;;;;;;;28.57;43.73;101941.84;5032343;28;20021;-75
2022/07/22 01:41:12;;;;;;;1.58;1.20;;;;;;;28.59;44.14;101942.66;5032060;28;20041;-75
2022/07/22 01:43:37;;;;;;;1.70;1.30;;;;;;;28.57;43.92;101937.34;5032262;28;20112;-74
2022/07/22 01:46:03;;;;;;;1.80;1.30;;;;;;;28.56;43.89;101945.47;5030392;28;20057;-74
2022/07/22 01:48:28;;;;;;;2.10;1.20;;;;;;;28.57;43.86;101949.91;5032382;28;20032;-75
2022/07/22 01:50:54;;;;;;;2.35;1.50;;;;;;;28.56;44.06;101945.47;5031766;28;20035;-75
2022/07/22 01:53:19;;;;;;;2.60;1.40;;;;;;;28.54;43.81;101945.56;5031791;28;20045;-75
2022/07/22 01:55:45;;;;;;;1.33;1.20;;;;;;;28.54;43.82;101942.88;5031072;28;20045;-75
2022/07/22 01:58:10;;;;;;;1.52;1.08;;;;;;;28.55;44.00;101944.59;5031835;28;20080;-74
2022/07/22 02:00:36;;;;;;;1.83;1.30;;;;;;;28.53;43.93;101946.50;5030762;28;20525;-75
2022/07/22 02:03:03;;;;;;;1.70;1.40;;;;;;;28.53;44.15;101943.81;5031941;28;20041;-74
2022/07/22 02:05:28;;;;;;;1.88;1.30;;;;;;;28.52;43.98;101938.50;5031649;28;20116;-75
2022/07/22 02:08:02;;;;;;;2.10;1.10;;;;;;;28.53;43.82;101940.25;5031371;28;20160;-74
2022/07/22 02:10:28;;;;;;;2.03;1.20;;;;;;;28.52;43.69;101934.00;5030117;28;20036;-75
2022/07/22 02:12:53;;;;;;;1.60;1.27;;;;;;;28.51;44.09;101931.41;5031722;28;20029;-75
2022/07/22 02:15:18;;;;;;;1.63;1.27;;;;;;;28.51;44.09;101932.28;5031112;28;20404;-74
2022/07/22 02:17:44;;;;;;;1.88;1.38;;;;;;;28.50;44.01;101933.19;5031548;28;20025;-75
2022/07/22 02:20:10;;;;;;;1.80;1.20;;;;;;;28.51;43.61;101931.41;5030285;28;20029;-75
2022/07/22 02:22:35;;;;;;;2.10;1.20;;;;;;;28.49;43.77;101927.91;5030074;28;20037;-75
2022/07/22 02:25:00;;;;;;;2.05;1.30;;;;;;;28.50;43.95;101935.00;5030677;28;20029;-74
2022/07/22 02:27:26;;;;;;;1.95;1.33;;;;;;;28.49;44.20;101933.25;5031289;28;20040;-75
2022/07/22 02:29:52;;;;;;;1.90;1.25;;;;;;;28.49;43.83;101939.50;5031381;28;20075;-75
2022/07/22 02:32:17;;;;;;;1.35;1.20;;;;;;;28.47;43.79;101938.72;5029814;28;20025;-75
2022/07/22 02:34:42;;;;;;;1.90;1.30;;;;;;;28.47;43.79;101938.72;5031466;28;20112;-75
2022/07/22 02:37:07;;;;;;;1.55;1.10;;;;;;;28.47;43.91;101930.69;5030871;28;20033;-75
2022/07/22 02:39:33;;;;;;;1.60;1.10;;;;;;;28.46;44.10;101931.59;5031360;28;20029;-75
2022/07/22 02:41:58;;;;;;;1.65;1.10;;;;;;;28.47;44.10;101935.16;5030586;28;20045;-74
2022/07/22 02:44:24;;;;;;;1.30;1.17;;;;;;;28.46;43.90;101936.97;5031366;28;20030;-74
2022/07/22 02:46:49;;;;;;;2.40;1.30;;;;;;;28.47;43.93;101937.84;5029091;28;20034;-75
2022/07/22 02:49:14;;;;;;;1.42;1.20;;;;;;;28.47;44.00;101937.84;5030742;28;20029;-74
2022/07/22 02:51:39;;;;;;;2.10;1.40;;;;;;;28.46;44.10;101933.41;5030549;28;20025;-75
2022/07/22 02:54:05;;;;;;;1.58;1.10;;;;;;;28.45;43.90;101934.34;5029385;28;20028;-74
2022/07/22 02:56:31;;;;;;;1.40;1.10;;;;;;;28.45;43.72;101931.66;5030559;28;20393;-74
2022/07/22 02:58:56;;;;;;;1.80;1.20;;;;;;;28.43;44.02;101925.50;5029164;28;20041;-75
2022/07/22 03:01:22;;;;;;;1.85;1.20;;;;;;;28.43;44.05;101926.38;5031180;28;20395;-74
2022/07/22 03:03:47;;;;;;;1.75;1.20;;;;;;;28.42;43.94;101929.97;5030537;28;20112;-74
2022/07/22 03:06:13;;;;;;;1.95;1.20;;;;;;;28.42;44.02;101927.28;5029134;28;20029;-74
2022/07/22 03:08:38;;;;;;;1.60;1.10;;;;;;;28.42;43.71;101940.72;5029116;28;20395;-75
2022/07/22 03:11:04;;;;;;;1.60;1.27;;;;;;;28.40;43.99;101939.94;5030556;28;20037;-75
2022/07/22 03:13:30;;;;;;;1.85;1.27;;;;;;;28.42;43.90;101937.19;5030369;28;20061;-75
2022/07/22 03:15:55;;;;;;;1.20;1.00;;;;;;;28.40;43.71;101939.06;5030445;28;20082;-75
2022/07/22 03:18:21;;;;;;;1.63;1.10;;;;;;;28.39;44.04;101938.19;5030198;28;20029;-75
2022/07/22 03:20:46;;;;;;;1.52;1.10;;;;;;;28.39;44.12;101930.13;5029927;28;20037;-75
2022/07/22 03:23:12;;;;;;;1.38;1.10;;;;;;;28.38;43.69;101941.78;5028923;28;20538;-75
2022/07/22 03:25:38;;;;;;;1.20;0.95;;;;;;;28.38;43.79;101936.44;5030056;28;20116;-75
2022/07/22 03:28:04;;;;;;;1.60;1.10;;;;;;;28.38;44.01;101938.25;5030009;28;20360;-75
2022/07/22 03:30:29;;;;;;;1.38;1.10;;;;;;;28.35;43.87;101944.63;5029805;28;20040;-75
2022/07/22 03:32:55;;;;;;;1.92;1.10;;;;;;;28.35;43.79;101938.38;5028859;28;20383;-75
2022/07/22 03:35:20;;;;;;;2.45;1.08;;;;;;;28.36;43.80;101940.97;5028646;28;20029;-75
2022/07/22 03:37:46;;;;;;;1.40;1.00;;;;;;;28.35;43.99;101939.25;5029648;28;20036;-74
2022/07/22 03:40:11;;;;;;;2.25;1.20;;;;;;;28.34;44.02;101934.84;5029681;28;20056;-74
2022/07/22 03:42:37;;;;;;;2.83;1.30;;;;;;;28.34;43.61;101940.19;5029878;28;20112;-75
2022/07/22 03:45:03;;;;;;;1.45;1.00;;;;;;;28.36;43.77;101945.50;5028309;28;20037;-75
2022/07/22 03:47:28;;;;;;;1.60;1.08;;;;;;;28.34;44.12;101942.88;5029581;28;20517;-75
2022/07/22 03:49:53;;;;;;;1.52;1.10;;;;;;;28.34;43.73;101944.69;5028579;28;20021;-75
2022/07/22 03:52:19;;;;;;;1.35;1.10;;;;;;;28.33;43.93;101945.63;5029339;28;20059;-75
2022/07/22 03:54:44;;;;;;;1.98;1.10;;;;;;;28.33;43.63;101941.13;5028953;28;20029;-74
2022/07/22 03:57:10;;;;;;;1.73;1.20;;;;;;;28.32;43.70;101946.56;5028093;28;20052;-74
2022/07/22 03:59:36;;;;;;;1.75;1.20;;;;;;;28.33;43.95;101948.31;5028013;28;20376;-74
2022/07/22 04:02:02;;;;;;;1.40;1.10;;;;;;;28.32;43.81;101946.56;5029235;28;20120;-74
2022/07/22 04:04:28;;;;;;;2.22;1.10;;;;;;;28.32;43.73;101951.91;5029404;28;20018;-75
2022/07/22 04:06:53;;;;;;;1.88;1.00;;;;;;;28.31;44.12;101955.53;5028079;28;20098;-75
2022/07/22 04:09:19;;;;;;;1.92;1.20;;;;;;;28.28;43.78;101953.88;5029517;28;20040;-75
2022/07/22 04:11:45;;;;;;;1.15;0.98;;;;;;;28.27;43.67;101949.44;5011501;28;20033;-75
2022/07/22 04:14:10;;;;;;;1.30;1.10;;;;;;;28.28;43.99;101959.25;5027953;28;20029;-75
2022/07/22 04:16:36;;;;;;;1.70;1.27;;;;;;;28.28;43.83;101953.00;5029259;28;20572;-75
2022/07/22 04:19:02;;;;;;;1.38;1.02;;;;;;;28.27;43.96;101948.56;5029384;28;20734;-74
2022/07/22 04:21:28;;;;;;;1.55;1.10;;;;;;;28.28;43.82;101947.63;5029068;28;20037;-74
2022/07/22 04:23:54;;;;;;;1.75;1.08;;;;;;;28.25;43.82;101948.63;5027670;28;20029;-75
2022/07/22 04:26:19;;;;;;;2.03;1.20;;;;;;;28.27;43.63;101951.25;5028973;28;20029;-75
2022/07/22 04:28:44;;;;;;;1.58;0.90;;;;;;;28.27;44.03;101940.53;5029234;28;20029;-74
2022/07/22 04:31:10;;;;;;;1.77;1.00;;;;;;;28.26;43.89;101939.66;5029359;28;20037;-75
2022/07/22 04:33:35;;;;;;;1.40;1.10;;;;;;;28.25;43.61;101944.13;5027922;28;20025;-75
2022/07/22 04:36:02;;;;;;;2.13;1.20;;;;;;;28.25;43.71;101946.81;5027658;28;20035;-75
2022/07/22 04:38:27;;;;;;;2.17;1.20;;;;;;;28.25;43.88;101946.81;5028788;28;20022;-75
2022/07/22 04:40:53;;;;;;;1.65;1.00;;;;;;;28.23;44.05;101943.34;5024743;28;20039;-75
2022/07/22 04:43:18;;;;;;;1.95;1.08;;;;;;;28.24;43.79;101946.88;5032028;28;20503;-75
2022/07/22 04:45:44;;;;;;;1.27;1.00;;;;;;;28.21;43.69;101945.22;5032829;28;20033;-75
2022/07/22 04:48:09;;;;;;;1.52;1.08;;;;;;;28.21;43.86;101937.19;5033039;28;20476;-75
2022/07/22 04:50:38;;;;;;;1.50;1.00;;;;;;;28.21;43.85;101941.66;5032925;28;20125;-75
2022/07/22 04:53:04;;;;;;;1.77;1.10;;;;;;;28.22;43.66;101946.97;5032365;28;20516;-75
2022/07/22 04:55:29;;;;;;;1.65;1.10;;;;;;;28.22;43.92;101941.59;5032731;28;20034;-76
2022/07/22 04:57:55;;;;;;;1.38;0.93;;;;;;;28.23;43.50;101939.78;5031652;28;20062;-75
2022/07/22 05:00:21;;;;;;;1.40;1.08;;;;;;;28.20;43.62;101943.47;5032883;28;20021;-76
2022/07/22 05:02:46;;;;;;;1.55;1.00;;;;;;;28.22;43.65;101946.09;5032869;28;20034;-76
2022/07/22 05:05:11;;;;;;;1.60;1.00;;;;;;;28.22;43.65;101946.97;5032644;28;20034;-76
2022/07/22 05:07:37;;;;;;;1.55;1.00;;;;;;;28.21;44.00;101938.97;5031565;28;20547;-76
2022/07/22 05:10:03;;;;;;;1.30;1.10;;;;;;;28.20;44.03;101940.78;5030838;28;20454;-76
2022/07/22 05:12:28;;;;;;;1.55;1.17;;;;;;;28.20;43.62;101938.09;5032716;28;20036;-76
2022/07/22 05:14:53;;;;;;;1.58;1.08;;;;;;;28.20;43.81;101942.59;5032499;28;20025;-76
2022/07/22 05:17:19;;;;;;;2.15;0.90;;;;;;;28.21;43.50;101937.19;5031375;28;20033;-76
2022/07/22 05:19:44;;;;;;;1.30;1.00;;;;;;;28.20;43.73;101939.91;5032060;28;20031;-75
2022/07/22 05:22:10;;;;;;;1.13;0.93;;;;;;;28.19;43.61;101933.69;5031935;28;20047;-76
2022/07/22 05:24:35;;;;;;;2.00;1.10;;;;;;;28.19;43.63;101939.03;5032085;28;20087;-76
2022/07/22 05:27:01;;;;;;;1.45;1.10;;;;;;;28.17;43.53;101930.22;5032347;28;20041;-76
2022/07/22 05:29:27;;;;;;;1.45;1.00;;;;;;;28.17;43.74;101932.91;5031910;28;20036;-76
2022/07/22 05:31:52;;;;;;;1.55;1.17;;;;;;;28.19;43.67;101944.41;5031840;28;20041;-76
2022/07/22 05:34:18;;;;;;;1.50;1.02;;;;;;;28.16;43.57;101944.56;5031985;28;20021;-76
2022/07/22 05:36:43;;;;;;;1.30;1.00;;;;;;;28.17;43.63;101942.75;5014546;28;20026;-76
2022/07/22 05:39:09;;;;;;;1.25;0.95;;;;;;;28.17;43.82;101937.38;5031961;28;20025;-76
2022/07/22 05:41:34;;;;;;;1.38;0.90;;;;;;;28.19;43.57;101944.41;5031813;28;20029;-76
2022/07/22 05:43:59;;;;;;;1.33;0.90;;;;;;;28.18;43.61;101955.19;5031955;28;20222;-76
2022/07/22 05:46:25;;;;;;;1.92;1.10;;;;;;;28.17;43.80;101961.50;5031945;28;20041;-76
2022/07/22 05:48:50;;;;;;;1.40;1.00;;;;;;;28.18;43.57;101963.22;5031710;28;20029;-76
2022/07/22 05:51:16;;;;;;;1.40;1.00;;;;;;;28.17;43.39;101962.38;5031559;28;20108;-76
2022/07/22 05:53:43;;;;;;;1.50;1.02;;;;;;;28.17;43.63;101962.38;5031242;28;20034;-76
2022/07/22 05:56:10;;;;;;;1.10;0.82;;;;;;;28.16;43.44;101963.31;5031500;28;20092;-75
2022/07/22 05:58:36;;;;;;;1.65;1.00;;;;;;;28.17;43.47;101966.88;5031560;28;20029;-76
2022/07/22 06:01:01;;;;;;;1.10;0.82;;;;;;;28.17;43.50;101967.75;5030362;28;20476;-76
2022/07/22 06:03:27;;;;;;;1.08;0.90;;;;;;;28.16;43.50;101963.31;5031361;28;20060;-76
2022/07/22 06:05:52;;;;;;;1.50;1.00;;;;;;;28.16;43.86;101971.38;5031646;28;20055;-76
2022/07/22 06:08:17;;;;;;;1.58;1.00;;;;;;;28.15;43.53;101960.69;5031794;28;20041;-76
2022/07/22 06:10:43;;;;;;;1.30;0.98;;;;;;;28.14;43.77;101962.50;5030915;28;20304;-75
2022/07/22 06:13:08;;;;;;;1.92;1.00;;;;;;;28.14;43.66;101961.63;5031242;28;20100;-76
2022/07/22 06:15:34;;;;;;;1.67;0.95;;;;;;;28.14;43.44;101961.63;5031624;28;20048;-76
2022/07/22 06:17:59;;;;;;;1.85;1.00;;;;;;;28.14;43.83;101962.50;5030130;28;20567;-75
2022/07/22 06:20:24;;;;;;;1.17;1.00;;;;;;;28.15;43.62;101968.75;5031224;28;20124;-76
2022/07/22 06:22:50;;;;;;;1.45;1.00;;;;;;;28.14;43.38;101962.50;5030879;28;20036;-75
2022/07/22 06:25:15;;;;;;;1.40;0.98;;;;;;;28.14;43.55;101970.53;5031193;28;20521;-76
2022/07/22 06:27:40;;;;;;;1.42;0.80;;;;;;;28.14;43.38;101972.34;5030794;28;20116;-75
2022/07/22 06:30:06;;;;;;;2.10;1.00;;;;;;;28.14;43.32;101964.31;5030863;28;20404;-75
2022/07/22 06:32:32;;;;;;;1.20;0.93;;;;;;;28.14;43.55;101962.50;5031208;28;20036;-76
2022/07/22 06:34:57;;;;;;;1.20;1.00;;;;;;;28.15;43.64;101966.06;5029467;28;20124;-76
2022/07/22 06:37:23;;;;;;;1.23;1.00;;;;;;;28.15;43.46;101966.06;5013229;28;20025;-75
2022/07/22 06:39:48;;;;;;;1.30;0.98;;;;;;;28.13;43.41;101970.56;5029663;28;20030;-75
2022/07/22 06:42:14;;;;;;;1.50;1.10;;;;;;;28.15;43.44;101968.75;5029915;28;20025;-75
2022/07/22 06:44:39;;;;;;;1.20;0.85;;;;;;;28.14;43.41;101957.13;5030647;28;20526;-75
2022/07/22 06:47:05;;;;;;;1.08;0.90;;;;;;;28.15;43.58;101963.38;5030824;28;20136;-76
2022/07/22 06:49:30;;;;;;;1.17;0.88;;;;;;;28.15;43.51;101958.00;5029357;28;20021;-76
2022/07/22 06:51:56;;;;;;;1.40;0.93;;;;;;;28.13;43.26;101965.22;5030734;28;20685;-76
2022/07/22 06:54:21;;;;;;;1.38;0.80;;;;;;;28.15;43.59;101958.00;5012807;28;20032;-75
2022/07/22 06:56:46;;;;;;;0.95;0.80;;;;;;;28.15;43.50;101960.69;4996883;28;20042;-76
2022/07/22 06:59:12;;;;;;;0.95;0.85;;;;;;;28.14;43.77;101962.50;5030443;28;20510;-75
2022/07/22 07:01:37;;;;;;;2.35;1.08;;;;;;;28.14;43.41;101958.94;5030686;28;20026;-75
2022/07/22 07:04:03;;;;;;;1.30;0.90;;;;;;;28.15;43.59;101953.53;5029271;28;20061;-75
2022/07/22 07:06:28;;;;;;;1.38;0.88;;;;;;;28.16;43.39;101949.91;5028953;28;20038;-75
2022/07/22 07:08:54;;;;;;;1.08;0.80;;;;;;;28.14;43.55;101958.94;5030274;28;20412;-76
2022/07/22 07:11:19;;;;;;;1.30;0.90;;;;;;;28.15;43.29;101953.53;5030599;28;20025;-76
2022/07/22 07:13:45;;;;;;;1.25;1.00;;;;;;;28.13;43.40;101950.03;5028894;28;20033;-76
2022/07/22 07:16:10;;;;;;;1.05;0.90;;;;;;;28.14;43.63;101954.47;5030328;28;20029;-76
2022/07/22 07:18:36;;;;;;;1.05;0.90;;;;;;;28.14;43.44;101953.59;5029809;28;20446;-75
2022/07/22 07:21:03;;;;;;;1.02;0.88;;;;;;;28.16;43.25;101957.09;5030020;28;20029;-76
2022/07/22 07:23:29;;;;;;;1.00;0.90;;;;;;;28.15;43.51;101950.84;5029418;28;20034;-75
2022/07/22 07:25:54;;;;;;;1.10;0.90;;;;;;;28.15;43.31;101949.97;5029981;28;20502;-76
2022/07/22 07:28:20;;;;;;;1.92;0.90;;;;;;;28.15;43.64;101945.47;5028508;28;20044;-76
2022/07/22 07:30:45;;;;;;;1.17;0.93;;;;;;;28.15;43.29;101945.47;5030120;28;20108;-76
2022/07/22 07:33:11;;;;;;;1.27;0.98;;;;;;;28.15;43.26;101952.66;5029587;28;20106;-76
2022/07/22 07:35:36;;;;;;;2.05;1.00;;;;;;;28.15;43.37;101949.97;5030112;28;20053;-76
2022/07/22 07:38:02;;;;;;;1.35;0.85;;;;;;;28.15;43.37;101952.66;5029837;28;20041;-76
2022/07/22 07:40:27;;;;;;;1.20;0.90;;;;;;;28.15;43.43;101953.53;5029321;28;20036;-76
2022/07/22 07:42:53;;;;;;;1.38;0.90;;;;;;;28.15;43.41;101948.16;5029803;28;20357;-76
2022/07/22 07:45:18;;;;;;;1.15;0.90;;;;;;;28.17;43.09;101948.09;5029493;28;20037;-76
2022/07/22 07:47:43;;;;;;;1.20;0.90;;;;;;;28.15;43.35;101949.97;5029467;28;20037;-77
2022/07/22 07:50:09;;;;;;;1.25;1.00;;;;;;;28.15;43.19;101955.34;5029857;28;20029;-76
2022/07/22 07:52:39;;;;;;;0.90;0.80;;;;;;;28.13;43.29;101955.38;5029793;28;20035;-75
2022/07/22 07:55:05;;;;;;;1.27;0.95;;;;;;;28.15;43.44;101963.38;5010053;28;20029;-76
2022/07/22 07:57:30;;;;;;;1.38;1.00;;;;;;;28.13;43.50;101955.38;5029533;28;20050;-76
2022/07/22 07:59:56;;;;;;;1.10;0.90;;;;;;;28.15;43.23;101952.66;5029859;28;20112;-76
2022/07/22 08:02:21;;;;;;;1.23;0.90;;;;;;;28.15;43.35;101956.22;5029605;28;20064;-76
2022/07/22 08:04:46;;;;;;;1.20;0.88;;;;;;;28.14;43.45;101967.88;5011685;28;20678;-76
2022/07/22 08:07:12;;;;;;;1.40;0.85;;;;;;;28.16;43.50;101965.13;5028782;28;20087;-76
2022/07/22 08:09:37;;;;;;;1.75;1.00;;;;;;;28.16;43.28;101959.75;5027936;28;20033;-76
2022/07/22 08:12:04;;;;;;;1.40;0.93;;;;;;;28.14;43.15;101957.13;5029399;28;20029;-76
2022/07/22 08:14:29;;;;;;;1.20;0.80;;;;;;;28.14;43.47;101959.81;5028974;28;20029;-76
2022/07/22 08:16:55;;;;;;;1.58;1.00;;;;;;;28.15;43.44;101964.25;5028507;28;20025;-75
2022/07/22 08:19:20;;;;;;;1.13;0.85;;;;;;;28.14;42.95;101962.50;5029273;28;20072;-76
2022/07/22 08:21:46;;;;;;;0.80;0.80;;;;;;;28.16;43.02;101970.50;5028944;28;20132;-74
2022/07/22 08:24:11;;;;;;;1.42;1.00;;;;;;;28.16;43.03;101962.44;5029040;28;20037;-76
2022/07/22 08:26:37;;;;;;;1.23;0.90;;;;;;;28.15;43.02;101960.69;5028442;28;20041;-76
2022/07/22 08:29:03;;;;;;;2.00;0.98;;;;;;;28.15;42.94;101960.69;5028991;28;20551;-76
2022/07/22 08:31:29;;;;;;;1.10;0.80;;;;;;;28.14;43.28;101962.50;5029061;28;20092;-76
2022/07/22 08:33:54;;;;;;;0.90;0.80;;;;;;;28.16;43.33;101970.50;5029290;28;20029;-76
2022/07/22 08:36:20;;;;;;;1.40;0.90;;;;;;;28.16;43.20;101967.81;5028613;28;20022;-76
2022/07/22 08:38:45;;;;;;;1.10;0.80;;;;;;;28.16;43.03;101965.13;5028803;28;20025;-76
2022/07/22 08:41:13;;;;;;;1.02;0.80;;;;;;;28.14;42.95;101967.00;5028005;28;20052;-76
2022/07/22 08:43:42;;;;;;;1.52;0.90;;;;;;;28.15;43.24;101972.28;5029125;28;20053;-76
2022/07/22 08:46:07;;;;;;;1.08;0.90;;;;;;;28.16;42.96;101970.50;5027257;28;20383;-76
2022/07/22 08:48:37;;;;;;;1.48;0.90;;;;;;;28.16;42.85;101963.31;5029145;28;20031;-76
2022/07/22 08:51:02;;;;;;;1.17;0.80;;;;;;;28.15;42.98;101968.75;5028526;28;20443;-76
2022/07/22 08:53:27;;;;;;;1.27;1.00;;;;;;;28.14;43.02;101967.00;5028923;28;20112;-76
2022/07/22 08:55:53;;;;;;;1.40;0.90;;;;;;;28.16;42.88;101965.13;5028968;28;20040;-76
2022/07/22 08:58:18;;;;;;;1.40;0.88;;;;;;;28.13;42.92;101968.78;5028602;28;20059;-76
2022/07/22 09:00:43;;;;;;;2.45;1.00;;;;;;;28.14;43.03;101967.00;5028455;28;20048;-76
2022/07/22 09:03:27;;;;;;;2.05;0.98;;;;;;;28.14;43.07;101969.66;5027430;28;20079;-76
2022/07/22 09:05:54;;;;;;;;;;;;;;;28.16;43.15;101967.81;5028870;28;20116;-75
2022/07/22 09:08:21;;;;;;;1.05;0.80;;;;;;;28.16;43.04;101975.84;5028336;28;19921;-76
2022/07/22 09:10:47;;;;;;;1.48;0.98;;;;;;;28.14;43.05;101975.91;5026815;28;20180;-76
2022/07/22 09:13:14;;;;;;;1.75;1.00;;;;;;;28.13;42.82;101971.47;5028873;28;20033;-76
2022/07/22 09:15:52;;;;;;;1.20;0.90;;;;;;;28.14;42.97;101972.34;5028569;28;20667;-76
2022/07/22 09:18:17;;;;;;;1.52;1.00;;;;;;;28.15;42.76;101969.63;5026268;28;20036;-76
2022/07/22 09:20:47;;;;;;;1.10;0.75;;;;;;;28.15;43.21;101964.25;5028617;28;20404;-76
2022/07/22 09:23:17;;;;;;;1.35;0.85;;;;;;;28.16;43.00;101967.81;5028406;28;20029;-76
2022/07/22 09:25:42;;;;;;;0.93;0.80;;;;;;;28.16;42.95;101963.31;5028259;28;20044;-75
2022/07/22 09:28:07;;;;;;;1.40;0.93;;;;;;;28.17;42.90;101973.13;5030990;28;20029;-76
2022/07/22 09:30:38;;;;;;;1.38;0.98;;;;;;;28.17;43.14;101969.56;5032519;28;20040;-76
2022/07/22 09:33:05;;;;;;;1.35;1.00;;;;;;;28.15;43.10;101968.75;5032348;28;20022;-76
2022/07/22 09:35:31;;;;;;;1.30;0.90;;;;;;;28.15;42.83;101974.97;5032341;28;20063;-76
2022/07/22 09:38:02;;;;;;;1.35;0.82;;;;;;;28.15;42.76;101982.16;5031716;28;20068;-75
2022/07/22 09:40:37;;;;;;;1.08;0.80;;;;;;;28.16;42.88;101981.22;5032391;28;20045;-76
2022/07/22 09:43:11;;;;;;;1.10;0.90;;;;;;;28.15;42.73;101976.78;5032053;28;20127;-75
2022/07/22 09:45:53;;;;;;;1.40;0.90;;;;;;;28.15;42.41;101977.66;5032388;28;20032;-75
2022/07/22 09:48:21;;;;;;;1.10;0.82;;;;;;;28.15;42.89;101971.41;5031896;28;20387;-76
2022/07/22 09:50:47;;;;;;;1.35;0.90;;;;;;;28.15;43.15;101980.34;5031775;28;20115;-75
2022/07/22 09:53:13;;;;;;;1.00;0.80;;;;;;;28.14;43.02;101985.75;5029714;28;20034;-75
2022/07/22 09:55:39;;;;;;;0.98;0.73;;;;;;;28.14;42.86;101978.59;5030615;28;20112;-76
2022/07/22 09:58:07;;;;;;;0.95;0.80;;;;;;;28.11;43.20;101973.34;5014005;28;20420;-75
2022/07/22 10:00:35;;;;;;;1.00;0.80;;;;;;;28.12;43.18;101976.88;5031812;28;20036;-76
2022/07/22 10:03:02;;;;;;;1.25;0.90;;;;;;;28.11;43.21;101976.03;5031004;28;20087;-75
2022/07/22 10:05:31;;;;;;;1.00;0.80;;;;;;;28.09;42.95;101972.53;5031676;28;20021;-75
2022/07/22 10:07:57;;;;;;;1.50;0.90;;;;;;;28.13;42.91;101967.88;5029886;28;20036;-75
2022/07/22 10:10:24;;;;;;;1.00;0.80;;;;;;;28.12;42.98;101971.50;5030926;28;20037;-74
2022/07/22 10:12:52;;;;;;;1.02;0.80;;;;;;;28.11;43.05;101970.66;5030370;28;20399;-76
2022/07/22 10:15:18;;;;;;;0.95;0.80;;;;;;;28.11;42.71;101976.03;5031694;28;20029;-75
2022/07/22 10:17:48;;;;;;;1.15;0.90;;;;;;;28.10;43.00;101963.53;5030128;28;20022;-75
2022/07/22 10:20:18;;;;;;;0.90;0.70;;;;;;;28.10;42.99;101960.00;5031108;28;20041;-75
2022/07/22 10:22:58;;;;;;;1.17;0.90;;;;;;;28.12;42.77;101963.47;5030879;28;20113;-75
2022/07/22 10:25:26;;;;;;;0.93;0.70;;;;;;;28.13;42.79;101966.13;5030697;28;20037;-75
2022/07/22 10:27:56;;;;;;;1.30;0.90;;;;;;;28.13;42.82;101963.44;5031273;28;20025;-76
2022/07/22 10:30:35;;;;;;;1.15;0.80;;;;;;;28.13;42.79;101962.53;5031155;28;20025;-75
2022/07/22 10:33:21;;;;;;;1.42;0.90;;;;;;;28.14;42.79;101965.19;5031470;28;20057;-75
2022/07/22 10:35:59;;;;;;;1.38;0.90;;;;;;;28.13;42.67;101958.06;5030667;28;20037;-76
2022/07/22 10:38:26;;;;;;;1.17;0.80;;;;;;;28.12;42.97;101961.66;5030822;28;20490;-75
2022/07/22 10:40:57;;;;;;;1.27;0.90;;;;;;;28.13;42.64;101965.22;5030718;28;20029;-75
2022/07/22 10:43:25;;;;;;;0.88;0.70;;;;;;;28.13;42.84;101966.13;5030692;28;20422;-75
2022/07/22 10:45:51;;;;;;;1.25;0.80;;;;;;;28.14;42.89;101961.63;5029576;28;20417;-75
2022/07/22 10:48:41;;;;;;;1.10;0.85;;;;;;;28.14;42.58;101965.19;5029606;28;20038;-76
2022/07/22 10:51:08;;;;;;;1.08;0.90;;;;;;;28.14;42.94;101956.25;5030067;28;20044;-75
2022/07/22 10:53:55;;;;;;;1.35;0.93;;;;;;;28.14;42.96;101961.63;5030655;28;20029;-75
2022/07/22 10:56:28;;;;;;;1.17;0.90;;;;;;;28.14;42.59;101951.78;5029276;28;20380;-75
2022/07/22 10:59:11;;;;;;;0.90;0.80;;;;;;;28.13;42.67;101944.66;5031098;28;20114;-75
2022/07/22 11:01:48;;;;;;;0.93;0.80;;;;;;;28.15;42.87;101953.53;5030034;28;20021;-75
2022/07/22 11:04:24;;;;;;;1.45;0.80;;;;;;;28.14;42.85;101945.53;5030691;28;20028;-75
2022/07/22 11:06:54;;;;;;;0.93;0.70;;;;;;;28.13;42.66;101939.31;5028490;28;20048;-75
2022/07/22 11:09:22;;;;;;;1.13;0.80;;;;;;;28.12;42.87;101942.00;5030905;28;20060;-75
2022/07/22 11:11:54;;;;;;;1.00;0.80;;;;;;;28.13;42.88;101951.81;5030556;28;20096;-75
2022/07/22 11:14:26;;;;;;;0.77;0.70;;;;;;;28.14;42.78;101954.47;5030068;28;20468;-75
2022/07/22 11:16:53;;;;;;;0.90;0.73;;;;;;;28.15;42.75;101948.16;5030586;28;20025;-75
2022/07/22 11:19:27;;;;;;;1.52;0.90;;;;;;;28.14;42.80;101951.78;5030024;28;20041;-75
2022/07/22 11:22:06;;;;;;;0.80;0.80;;;;;;;28.15;42.90;101952.66;5029430;28;20025;-75